createdAt,value
2023-01-18T00:00:39.348Z,7.53
2023-01-18T00:03:08.760Z,7.47
2023-01-18T00:05:40.872Z,7.43
2023-01-18T00:08:09.340Z,6.18
2023-01-18T00:10:36.038Z,7.68
2023-01-18T00:13:03.253Z,8.38
2023-01-18T00:15:31.575Z,7.75
2023-01-18T00:17:58.151Z,7.15
2023-01-18T00:20:26.097Z,11.38
2023-01-18T00:22:52.913Z,7.60
2023-01-18T00:25:24.283Z,7.40
2023-01-18T00:27:53.615Z,11.07
2023-01-18T00:30:22.982Z,12.77
2023-01-18T00:32:53.302Z,15.65
2023-01-18T00:35:22.125Z,8.30
2023-01-18T00:37:50.151Z,6.25
2023-01-18T00:40:16.732Z,6.97
2023-01-18T00:43:02.100Z,10.43
2023-01-18T00:45:28.792Z,6.50
2023-01-18T00:47:55.574Z,6.07
2023-01-18T00:50:22.441Z,7.45
2023-01-18T00:52:50.015Z,9.48
2023-01-18T00:55:17.491Z,17.30
2023-01-18T00:57:45.404Z,10.52
2023-01-18T01:00:15.177Z,14.02
2023-01-18T01:02:42.513Z,8.68
2023-01-18T01:05:39.190Z,12.60
2023-01-18T01:08:06.535Z,11.10
2023-01-18T01:10:34.701Z,12.27
2023-01-18T01:13:20.592Z,17.45
2023-01-18T01:16:05.711Z,16.52
2023-01-18T01:18:50.648Z,12.60
2023-01-18T01:21:36.232Z,12.43
2023-01-18T01:24:21.680Z,17.17
2023-01-18T01:26:48.139Z,22.73
2023-01-18T01:29:15.829Z,18.77
2023-01-18T01:31:42.486Z,15.45
2023-01-18T01:34:09.844Z,17.83
2023-01-18T01:36:36.525Z,19.80
2023-01-18T01:39:03.544Z,13.25
2023-01-18T01:41:32.812Z,12.57
2023-01-18T01:44:04.401Z,14.38
2023-01-18T01:46:52.077Z,17.88
2023-01-18T01:49:32.680Z,21.20
2023-01-18T01:52:03.723Z,14.93
2023-01-18T01:54:35.761Z,15.65
2023-01-18T01:57:36.568Z,13.13
2023-01-18T02:00:03.182Z,15.55
2023-01-18T02:02:32.559Z,14.90
2023-01-18T02:05:00.933Z,14.82
2023-01-18T02:07:28.927Z,13.60
2023-01-18T02:09:57.117Z,12.93
2023-01-18T02:12:23.949Z,10.73
2023-01-18T02:14:50.891Z,12.57
2023-01-18T02:17:39.395Z,12.80
2023-01-18T02:20:27.678Z,10.35
2023-01-18T02:23:26.521Z,12.52
2023-01-18T02:26:23.705Z,13.30
2023-01-18T02:29:08.673Z,12.23
2023-01-18T02:31:48.792Z,14.55
2023-01-18T02:34:34.420Z,11.32
2023-01-18T02:37:20.990Z,15.38
2023-01-18T02:40:01.134Z,12.93
2023-01-18T02:42:49.234Z,14.02
2023-01-18T02:45:40.642Z,16.50
2023-01-18T02:48:08.393Z,15.02
2023-01-18T02:50:35.862Z,14.80
2023-01-18T02:53:02.384Z,19.98
2023-01-18T02:55:41.269Z,15.43
2023-01-18T02:58:32.616Z,18.02
2023-01-18T03:01:17.952Z,18.55
2023-01-18T03:03:48.810Z,18.73
2023-01-18T03:06:15.336Z,15.18
2023-01-18T03:08:49.427Z,11.73
2023-01-18T03:11:20.816Z,13.93
2023-01-18T03:13:50.526Z,15.57
2023-01-18T03:16:27.761Z,20.83
2023-01-18T03:19:05.782Z,18.50
2023-01-18T03:21:45.635Z,20.92
2023-01-18T03:24:14.286Z,16.77
2023-01-18T03:26:44.913Z,13.07
2023-01-18T03:29:33.342Z,18.98
2023-01-18T03:32:33.569Z,19.67
2023-01-18T03:35:11.627Z,16.23
2023-01-18T03:37:44.238Z,19.20
2023-01-18T03:40:16.886Z,15.15
2023-01-18T03:42:50.883Z,15.55
2023-01-18T03:45:27.130Z,18.55
2023-01-18T03:47:53.682Z,17.38
2023-01-18T03:50:29.429Z,15.05
2023-01-18T03:53:00.153Z,18.90
2023-01-18T03:55:34.611Z,23.63
2023-01-18T03:58:07.564Z,20.00
2023-01-18T04:00:34.241Z,19.83
2023-01-18T04:03:01.460Z,18.48
2023-01-18T04:05:28.483Z,15.95
2023-01-18T04:07:54.869Z,17.70
2023-01-18T04:10:21.486Z,19.98
2023-01-18T04:12:48.050Z,14.77
2023-01-18T04:15:14.623Z,17.42
2023-01-18T04:17:41.243Z,20.13
2023-01-18T04:20:08.530Z,21.15
2023-01-18T04:22:35.145Z,18.55
2023-01-18T04:25:01.649Z,17.88
2023-01-18T04:27:28.363Z,19.70
2023-01-18T04:29:54.906Z,19.40
2023-01-18T04:32:21.544Z,24.48
2023-01-18T04:34:47.927Z,21.60
2023-01-18T04:37:14.325Z,17.88
2023-01-18T04:39:41.115Z,18.35
2023-01-18T04:42:07.602Z,20.40
2023-01-18T04:44:34.164Z,23.10
2023-01-18T04:47:00.602Z,18.95
2023-01-18T04:49:27.706Z,18.17
2023-01-18T04:51:54.075Z,16.20
2023-01-18T04:54:20.629Z,20.75
2023-01-18T04:56:47.021Z,19.48
2023-01-18T04:59:15.803Z,24.40
2023-01-18T05:01:42.605Z,18.95
2023-01-18T05:04:09.239Z,24.92
2023-01-18T05:06:35.726Z,25.88
2023-01-18T05:09:02.267Z,19.05
2023-01-18T05:11:28.759Z,21.45
2023-01-18T05:13:55.190Z,23.35
2023-01-18T05:16:23.249Z,19.33
2023-01-18T05:18:49.956Z,24.73
2023-01-18T05:21:16.611Z,23.00
2023-01-18T05:23:43.284Z,29.33
2023-01-18T05:26:24.127Z,28.45
2023-01-18T05:28:56.768Z,24.83
2023-01-18T05:31:23.528Z,23.58
2023-01-18T05:33:50.097Z,26.70
2023-01-18T05:36:16.712Z,24.55
2023-01-18T05:38:43.301Z,24.00
2023-01-18T05:41:10.175Z,26.90
2023-01-18T05:43:38.076Z,24.67
2023-01-18T05:46:06.875Z,24.90
2023-01-18T05:48:33.392Z,28.15
2023-01-18T05:51:00.000Z,22.83
2023-01-18T05:53:26.430Z,24.15
2023-01-18T05:55:58.731Z,24.98
2023-01-18T05:58:26.215Z,23.17
2023-01-18T06:00:53.096Z,19.60
2023-01-18T06:03:19.717Z,21.67
2023-01-18T06:05:47.843Z,24.38
2023-01-18T06:08:15.515Z,24.27
2023-01-18T06:10:42.122Z,24.02
2023-01-18T06:13:08.566Z,23.35
2023-01-18T06:15:35.467Z,23.75
2023-01-18T06:18:02.463Z,19.00
2023-01-18T06:20:30.369Z,21.27
2023-01-18T06:22:58.119Z,22.80
2023-01-18T06:25:25.075Z,17.25
2023-01-18T06:27:51.624Z,19.65
2023-01-18T06:30:18.584Z,19.90
2023-01-18T06:32:45.217Z,21.30
2023-01-18T06:35:11.624Z,19.65
2023-01-18T06:37:38.469Z,21.08
2023-01-18T06:40:05.598Z,20.33
2023-01-18T06:42:32.146Z,21.77
2023-01-18T06:44:59.593Z,25.63
2023-01-18T06:47:26.038Z,20.17
2023-01-18T06:49:52.407Z,26.27
2023-01-18T06:52:19.064Z,24.08
2023-01-18T06:54:45.528Z,25.00
2023-01-18T06:57:12.469Z,20.75
2023-01-18T06:59:39.770Z,17.85
2023-01-18T07:02:07.182Z,24.67
2023-01-18T07:04:35.686Z,21.77
2023-01-18T07:07:02.235Z,20.90
2023-01-18T07:09:28.840Z,19.60
2023-01-18T07:11:55.218Z,16.58
2023-01-18T07:14:21.623Z,20.05
2023-01-18T07:16:48.206Z,23.30
2023-01-18T07:19:16.247Z,21.23
2023-01-18T07:21:42.825Z,21.85
2023-01-18T07:24:09.190Z,22.70
2023-01-18T07:26:35.708Z,19.38
2023-01-18T07:29:02.228Z,21.02
2023-01-18T07:31:30.053Z,25.20
2023-01-18T07:33:56.661Z,28.33
2023-01-18T07:36:23.331Z,21.48
2023-01-18T07:38:49.791Z,20.42
2023-01-18T07:41:17.229Z,19.90
2023-01-18T07:43:44.732Z,24.05
2023-01-18T07:46:15.724Z,24.77
2023-01-18T07:48:42.780Z,18.95
2023-01-18T07:51:10.485Z,24.85
2023-01-18T07:53:39.822Z,21.98
2023-01-18T07:56:09.024Z,20.83
2023-01-18T07:58:36.338Z,17.83
2023-01-18T08:01:17.875Z,28.08
2023-01-18T08:03:45.634Z,22.60
2023-01-18T08:06:16.850Z,29.30
2023-01-18T08:08:43.641Z,29.67
2023-01-18T08:11:11.315Z,21.58
2023-01-18T08:13:38.287Z,21.90
2023-01-18T08:16:07.855Z,27.77
2023-01-18T08:18:35.039Z,24.73
2023-01-18T08:21:01.468Z,19.38
2023-01-18T08:23:27.992Z,20.73
2023-01-18T08:25:55.405Z,23.17
2023-01-18T08:28:22.294Z,23.92
2023-01-18T08:30:49.485Z,19.50
2023-01-18T08:33:15.967Z,19.92
2023-01-18T08:35:45.004Z,20.55
2023-01-18T08:38:13.475Z,17.92
2023-01-18T08:40:40.242Z,21.65
2023-01-18T08:43:07.079Z,22.45
2023-01-18T08:45:37.639Z,26.10
2023-01-18T08:48:10.119Z,28.00
2023-01-18T08:50:38.912Z,19.58
2023-01-18T08:53:05.425Z,27.50
2023-01-18T08:55:33.962Z,25.80
2023-01-18T08:58:00.563Z,24.00
2023-01-18T09:00:30.576Z,23.85
2023-01-18T09:02:58.614Z,21.30
2023-01-18T09:05:26.912Z,21.40
2023-01-18T09:07:54.489Z,23.67
2023-01-18T09:10:22.151Z,22.17
2023-01-18T09:12:49.055Z,27.08
2023-01-18T09:15:15.695Z,21.25
2023-01-18T09:17:42.219Z,28.55
2023-01-18T09:20:10.584Z,24.38
2023-01-18T09:22:37.699Z,30.95
2023-01-18T09:25:05.869Z,28.45
2023-01-18T09:27:32.864Z,25.95
2023-01-18T09:29:59.379Z,24.63
2023-01-18T09:32:27.337Z,24.05
2023-01-18T09:34:54.743Z,20.80
2023-01-18T09:37:21.379Z,23.88
2023-01-18T09:39:52.162Z,25.55
2023-01-18T09:42:25.113Z,22.65
2023-01-18T09:44:55.266Z,25.30
2023-01-18T09:47:34.341Z,26.38
2023-01-18T09:50:11.956Z,31.08
2023-01-18T09:52:53.056Z,26.52
2023-01-18T09:55:46.016Z,26.13
2023-01-18T09:58:46.779Z,35.30
2023-01-18T10:01:20.072Z,33.92
2023-01-18T10:03:50.198Z,31.05
2023-01-18T10:06:28.353Z,31.67
2023-01-18T10:09:00.493Z,27.50
2023-01-18T10:12:23.552Z,31.95
2023-01-18T10:14:54.953Z,30.00
2023-01-18T10:17:29.252Z,30.38
2023-01-18T10:19:55.817Z,32.95
2023-01-18T10:22:35.645Z,33.65
2023-01-18T10:25:24.169Z,36.90
2023-01-18T10:28:06.986Z,38.97
2023-01-18T10:30:50.419Z,32.38
2023-01-18T10:33:16.854Z,35.42
2023-01-18T10:35:48.323Z,29.23
2023-01-18T10:38:18.529Z,29.50
2023-01-18T10:40:54.957Z,31.23
2023-01-18T10:43:25.361Z,34.40
2023-01-18T10:45:53.483Z,33.42
2023-01-18T10:48:26.120Z,34.53
2023-01-18T10:50:56.488Z,40.35
2023-01-18T10:53:36.369Z,36.17
2023-01-18T10:56:07.572Z,38.15
2023-01-18T10:58:46.725Z,43.33
2023-01-18T11:01:17.401Z,43.38
2023-01-18T11:03:48.662Z,37.55
2023-01-18T11:06:17.033Z,31.15
2023-01-18T11:08:43.921Z,40.28
2023-01-18T11:11:57.893Z,32.38
2023-01-18T11:14:24.428Z,31.38
2023-01-18T11:17:03.261Z,27.33
2023-01-18T11:19:30.375Z,30.17
2023-01-18T11:21:56.931Z,37.00
2023-01-18T11:24:28.652Z,31.42
2023-01-18T11:27:04.415Z,35.50
2023-01-18T11:29:41.554Z,35.17
2023-01-18T11:32:28.564Z,38.67
2023-01-18T11:34:58.123Z,29.33
2023-01-18T11:37:36.248Z,30.52
2023-01-18T11:40:21.590Z,28.45
2023-01-18T11:42:53.160Z,28.88
2023-01-18T11:45:48.059Z,28.92
2023-01-18T11:48:35.988Z,32.93
2023-01-18T11:51:30.205Z,26.58
2023-01-18T11:54:11.200Z,25.85
2023-01-18T11:56:51.443Z,21.98
2023-01-18T11:59:23.069Z,23.15
2023-01-18T12:01:55.325Z,21.90
2023-01-18T12:04:33.137Z,25.45
2023-01-18T12:07:30.048Z,23.85
2023-01-18T12:09:57.856Z,37.75
2023-01-18T12:12:45.645Z,24.77
2023-01-18T12:15:32.412Z,30.45
2023-01-18T12:18:14.247Z,31.67
2023-01-18T12:20:55.365Z,24.17
2023-01-18T12:23:49.328Z,28.88
2023-01-18T12:26:42.666Z,29.25
2023-01-18T12:29:27.903Z,25.73
2023-01-18T12:32:10.128Z,30.23
2023-01-18T12:35:23.681Z,26.63
2023-01-18T12:38:09.131Z,21.17
2023-01-18T12:40:57.909Z,22.80
2023-01-18T12:43:49.559Z,21.77
2023-01-18T12:46:24.557Z,20.20
2023-01-18T12:52:00.764Z,20.77
2023-01-18T12:54:42.051Z,23.73
2023-01-18T12:57:10.620Z,19.83
2023-01-18T13:00:01.541Z,17.75
2023-01-18T13:02:36.962Z,24.05
2023-01-18T13:05:13.940Z,15.05
2023-01-18T13:07:45.650Z,12.75
2023-01-18T13:10:28.902Z,15.10
2023-01-18T13:12:58.687Z,12.57
2023-01-18T13:15:51.408Z,13.13
2023-01-18T13:18:40.233Z,10.63
2023-01-18T13:21:53.272Z,23.92
2023-01-18T13:24:47.363Z,11.25
2023-01-18T13:27:17.755Z,11.90
2023-01-18T13:29:45.954Z,10.93
2023-01-18T13:32:28.673Z,10.23
2023-01-18T13:35:18.049Z,18.67
2023-01-18T13:37:55.776Z,13.82
2023-01-18T13:40:37.964Z,16.10
2023-01-18T13:43:20.293Z,10.88
2023-01-18T13:46:10.280Z,7.82
2023-01-18T13:48:47.196Z,15.90
2023-01-18T13:51:42.591Z,12.93
2023-01-18T13:54:18.518Z,13.13
2023-01-18T13:57:04.271Z,9.77
2023-01-18T13:59:36.987Z,12.07
2023-01-18T14:02:17.403Z,10.85
2023-01-18T14:04:44.558Z,8.15
2023-01-18T14:07:19.776Z,11.00
2023-01-18T14:09:48.741Z,8.13
2023-01-18T14:12:15.734Z,8.93
2023-01-18T14:14:58.844Z,10.02
2023-01-18T14:17:26.424Z,8.13
2023-01-18T14:19:57.276Z,7.63
2023-01-18T14:22:58.779Z,6.43
2023-01-18T14:25:43.805Z,6.10
2023-01-18T14:28:48.695Z,15.80
2023-01-18T14:31:25.969Z,6.40
2023-01-18T14:33:52.524Z,9.10
2023-01-18T14:36:22.096Z,7.50
2023-01-18T14:39:09.711Z,5.82
2023-01-18T14:41:38.155Z,8.32
2023-01-18T14:44:05.989Z,4.95
2023-01-18T14:46:32.731Z,9.68
2023-01-18T14:49:01.672Z,6.57
2023-01-18T14:51:29.674Z,9.23
2023-01-18T14:54:00.387Z,7.65
2023-01-18T14:56:29.153Z,6.55
2023-01-18T14:58:59.293Z,4.43
2023-01-18T15:01:30.812Z,9.93
2023-01-18T15:03:59.744Z,7.80
2023-01-18T15:06:38.403Z,6.93
2023-01-18T15:09:07.098Z,9.32
2023-01-18T15:11:36.357Z,6.88
2023-01-18T15:14:07.569Z,5.97
2023-01-18T15:16:34.783Z,6.72
2023-01-18T15:19:01.940Z,5.35
2023-01-18T15:21:31.823Z,8.95
2023-01-18T15:24:08.559Z,7.70
2023-01-18T15:26:52.716Z,8.65
2023-01-18T15:29:25.124Z,6.82
2023-01-18T15:31:58.768Z,7.50
2023-01-18T15:34:28.172Z,8.55
2023-01-18T15:36:56.593Z,12.23
2023-01-18T15:39:23.342Z,7.65
2023-01-18T15:41:52.329Z,16.65
2023-01-18T15:44:39.593Z,9.68
2023-01-18T15:47:36.864Z,7.88
2023-01-18T15:50:16.290Z,10.25
2023-01-18T15:52:45.592Z,9.73
2023-01-18T15:55:35.809Z,7.30
2023-01-18T15:58:05.510Z,8.55
2023-01-18T16:00:40.949Z,10.25
2023-01-18T16:03:22.145Z,13.40
2023-01-18T16:06:20.699Z,19.40
2023-01-18T16:09:12.759Z,9.93
2023-01-18T16:11:56.896Z,12.32
2023-01-18T16:14:29.086Z,9.98
2023-01-18T16:16:58.114Z,10.15
2023-01-18T16:19:51.108Z,9.75
2023-01-18T16:22:22.040Z,9.57
2023-01-18T16:24:50.870Z,11.88
2023-01-18T16:27:20.145Z,8.95
2023-01-18T16:30:23.899Z,6.90
2023-01-18T16:32:50.865Z,8.07
2023-01-18T16:35:20.683Z,11.25
2023-01-18T16:37:48.545Z,8.85
2023-01-18T16:40:17.791Z,7.72
2023-01-18T16:43:01.329Z,11.57
2023-01-18T16:45:30.054Z,7.43
2023-01-18T16:47:58.176Z,7.68
2023-01-18T16:50:25.310Z,8.55
2023-01-18T16:52:51.903Z,35.33
2023-01-18T16:55:18.381Z,15.85
2023-01-18T16:57:45.401Z,11.15
2023-01-18T17:00:23.506Z,11.25
2023-01-18T17:02:50.335Z,20.38
2023-01-18T17:05:17.697Z,15.25
2023-01-18T17:07:44.698Z,10.77
2023-01-18T17:10:31.025Z,10.80
2023-01-18T17:12:59.898Z,9.15
2023-01-18T17:15:32.217Z,10.93
2023-01-18T17:17:58.669Z,10.60
2023-01-18T17:20:26.905Z,11.77
2023-01-18T17:22:54.228Z,21.10
2023-01-18T17:25:22.463Z,11.15
2023-01-18T17:27:49.409Z,9.60
2023-01-18T17:30:21.305Z,11.55
2023-01-18T17:32:48.863Z,16.92
2023-01-18T17:35:18.335Z,20.77
2023-01-18T17:37:45.437Z,12.98
2023-01-18T17:40:22.533Z,19.95
2023-01-18T17:42:51.659Z,20.80
2023-01-18T17:45:18.561Z,20.50
2023-01-18T17:47:45.300Z,29.48
2023-01-18T17:50:17.168Z,124.07
2023-01-18T17:52:43.572Z,27.83
2023-01-18T17:55:13.130Z,19.95
2023-01-18T17:57:40.523Z,19.23
2023-01-18T18:00:11.874Z,25.05
2023-01-18T18:02:38.400Z,12.30
2023-01-18T18:05:05.611Z,16.33
2023-01-18T18:07:32.300Z,20.10
2023-01-18T18:10:01.173Z,17.80
2023-01-18T18:12:29.325Z,23.30
2023-01-18T18:14:56.380Z,18.83
2023-01-18T18:17:28.486Z,13.90
2023-01-18T18:19:55.377Z,17.30
2023-01-18T18:22:22.320Z,14.02
2023-01-18T18:24:49.546Z,41.80
2023-01-18T18:27:17.257Z,21.00
2023-01-18T18:29:44.338Z,15.35
2023-01-18T18:32:11.361Z,12.85
2023-01-18T18:34:37.942Z,27.55
2023-01-18T18:37:05.656Z,11.70
2023-01-18T18:39:33.067Z,13.88
2023-01-18T18:41:59.574Z,12.32
2023-01-18T18:44:25.949Z,15.38
2023-01-18T18:46:52.520Z,44.92
2023-01-18T18:49:18.970Z,22.65
2023-01-18T18:51:45.578Z,24.67
2023-01-18T18:54:12.092Z,46.80
2023-01-18T18:56:39.013Z,55.45
2023-01-18T18:59:05.589Z,34.40
2023-01-18T19:01:32.264Z,30.92
2023-01-18T19:03:59.328Z,59.83
2023-01-18T19:06:25.971Z,14.90
2023-01-18T19:08:53.124Z,37.00
2023-01-18T19:11:20.219Z,14.50
2023-01-18T19:13:49.348Z,16.27
2023-01-18T19:16:16.655Z,22.88
2023-01-18T19:18:43.495Z,18.48
2023-01-18T19:21:09.946Z,12.48
2023-01-18T19:23:36.507Z,16.33
2023-01-18T19:26:03.871Z,13.10
2023-01-18T19:28:30.510Z,15.48
2023-01-18T19:31:07.619Z,15.93
2023-01-18T19:33:34.613Z,15.68
2023-01-18T19:36:10.157Z,14.07
2023-01-18T19:38:45.770Z,13.40
2023-01-18T19:41:13.318Z,10.38
2023-01-18T19:43:39.905Z,15.70
2023-01-18T19:46:07.730Z,14.45
2023-01-18T19:48:36.584Z,12.90
2023-01-18T19:51:21.381Z,15.05
2023-01-18T19:53:48.761Z,11.15
2023-01-18T19:56:15.481Z,17.83
2023-01-18T19:58:41.932Z,10.75
2023-01-18T20:01:23.126Z,14.50
2023-01-18T20:03:56.898Z,13.23
2023-01-18T20:06:23.677Z,11.05
2023-01-18T20:08:53.989Z,10.65
2023-01-18T20:11:20.903Z,12.18
2023-01-18T20:13:49.095Z,12.15
2023-01-18T20:16:15.922Z,15.25
2023-01-18T20:18:42.621Z,16.27
2023-01-18T20:21:11.966Z,13.13
2023-01-18T20:23:38.702Z,11.48
2023-01-18T20:26:05.557Z,10.02
2023-01-18T20:28:33.118Z,10.40
2023-01-18T20:31:02.729Z,11.30
2023-01-18T20:33:29.499Z,10.13
2023-01-18T20:35:55.883Z,10.95
2023-01-18T20:38:22.362Z,10.77
2023-01-18T20:40:48.851Z,15.43
2023-01-18T20:43:15.336Z,12.68
2023-01-18T20:45:41.772Z,8.57
2023-01-18T20:48:13.855Z,12.57
2023-01-18T20:50:41.276Z,12.95
2023-01-18T20:53:07.876Z,12.45
2023-01-18T20:55:36.167Z,12.93
2023-01-18T20:58:02.896Z,11.10
2023-01-18T21:00:29.416Z,10.07
2023-01-18T21:02:57.179Z,17.27
2023-01-18T21:05:25.273Z,11.02
2023-01-18T21:07:51.732Z,10.73
2023-01-18T21:10:18.400Z,15.27
2023-01-18T21:12:44.986Z,9.20
2023-01-18T21:15:11.860Z,11.27
2023-01-18T21:17:39.539Z,14.30
2023-01-18T21:20:07.663Z,9.48
2023-01-18T21:22:34.435Z,10.23
2023-01-18T21:25:01.072Z,10.15
2023-01-18T21:27:28.119Z,10.13
2023-01-18T21:29:54.688Z,9.77
2023-01-18T21:32:22.690Z,12.50
2023-01-18T21:34:49.192Z,13.00
2023-01-18T21:37:15.677Z,14.93
2023-01-18T21:39:42.259Z,11.25
2023-01-18T21:42:29.376Z,13.43
2023-01-18T21:45:14.435Z,13.40
2023-01-18T21:47:40.806Z,12.25
2023-01-18T21:50:26.653Z,10.07
2023-01-18T21:53:11.426Z,14.23
2023-01-18T21:55:40.083Z,11.77
2023-01-18T21:58:25.283Z,11.77
2023-01-18T22:00:51.808Z,13.52
2023-01-18T22:03:18.543Z,10.38
2023-01-18T22:05:44.988Z,13.93
2023-01-18T22:08:11.628Z,10.63
2023-01-18T22:10:38.143Z,8.60
2023-01-18T22:13:04.621Z,12.65
2023-01-18T22:15:31.128Z,12.38
2023-01-18T22:17:58.350Z,10.32
2023-01-18T22:20:25.256Z,9.70
2023-01-18T22:22:51.880Z,10.60
2023-01-18T22:25:18.425Z,9.60
2023-01-18T22:27:45.077Z,11.98
2023-01-18T22:30:12.349Z,11.52
2023-01-18T22:32:38.733Z,11.00
2023-01-18T22:35:05.634Z,13.32
2023-01-18T22:37:32.105Z,10.70
2023-01-18T22:39:58.698Z,14.55
2023-01-18T22:42:25.200Z,12.50
2023-01-18T22:44:51.758Z,11.98
2023-01-18T22:47:18.187Z,11.70
2023-01-18T22:49:44.735Z,13.55
2023-01-18T22:52:11.195Z,10.30
2023-01-18T22:54:37.799Z,14.10
2023-01-18T22:57:04.450Z,13.23
2023-01-18T22:59:30.942Z,12.60
2023-01-18T23:01:58.075Z,9.23
2023-01-18T23:04:24.711Z,13.70
2023-01-18T23:06:54.425Z,10.05
2023-01-18T23:09:21.241Z,16.08
2023-01-18T23:11:47.862Z,13.70
2023-01-18T23:14:33.415Z,11.63
2023-01-18T23:17:18.821Z,11.00
2023-01-18T23:19:45.392Z,11.20
2023-01-18T23:22:11.993Z,12.68
2023-01-18T23:24:39.619Z,12.20
2023-01-18T23:27:09.516Z,9.35
2023-01-18T23:29:36.391Z,13.00
2023-01-18T23:32:03.270Z,13.10
2023-01-18T23:34:29.810Z,10.80
2023-01-18T23:36:56.232Z,13.50
2023-01-18T23:39:41.498Z,10.63
2023-01-18T23:42:26.439Z,12.45
2023-01-18T23:45:11.517Z,13.55
2023-01-18T23:47:56.478Z,14.13
2023-01-18T23:50:42.047Z,13.02
2023-01-18T23:55:57.751Z,20.77
2023-01-18T23:58:24.828Z,12.55
